Time;durP1;ratioP1;P1;durP2;ratioP2;P2;SDS_P1;SDS_P2;PMS_P1;PMS_P2;Temp;Humidity;BMP_temperature;BMP_pressure;BME280_temperature;BME280_humidity;BME280_pressure;Samples;Min_cycle;Max_cycle;Signal;HPM_P1;HPM_P2
2022/01/08 00:00:07;;;;;;;9.02;3.70;;;2.20;99.90;;;;;;5134596;27;20039;-66
2022/01/08 00:02:35;;;;;;;11.05;4.60;;;2.20;99.90;;;;;;5133571;27;20520;-66
2022/01/08 00:05:01;;;;;;;10.15;4.82;;;2.20;99.90;;;;;;5116841;27;20065;-67
2022/01/08 00:07:27;;;;;;;9.68;5.25;;;2.10;99.90;;;;;;5134295;27;20473;-66
2022/01/08 00:09:54;;;;;;;8.77;5.38;;;2.10;99.90;;;;;;5133247;27;20078;-65
2022/01/08 00:12:19;;;;;;;10.27;5.85;;;2.00;99.90;;;;;;5134584;27;20383;-65
2022/01/08 00:14:46;;;;;;;10.05;5.60;;;2.00;99.90;;;;;;5133425;27;20107;-66
2022/01/08 00:17:12;;;;;;;13.43;6.07;;;2.00;99.90;;;;;;5106926;28;20058;-66
2022/01/08 00:19:37;;;;;;;11.95;7.13;;;2.00;99.90;;;;;;5095861;28;20372;-65
2022/01/08 00:22:04;;;;;;;10.63;6.28;;;2.00;99.90;;;;;;5113833;27;20372;-67
2022/01/08 00:24:31;;;;;;;12.35;7.05;;;2.00;99.90;;;;;;5095576;28;20456;-66
2022/01/08 00:26:56;;;;;;;12.75;6.53;;;2.00;99.90;;;;;;5119022;27;20031;-67
2022/01/08 00:29:22;;;;;;;13.70;7.03;;;2.00;99.90;;;;;;5134117;27;20088;-66
2022/01/08 00:31:47;;;;;;;10.35;6.88;;;1.90;99.90;;;;;;5133776;27;20046;-67
2022/01/08 00:34:13;;;;;;;13.88;7.00;;;1.90;99.90;;;;;;5133122;27;20050;-67
2022/01/08 00:36:39;;;;;;;11.27;7.18;;;1.80;99.90;;;;;;5128276;27;20031;-67
2022/01/08 00:39:07;;;;;;;14.73;7.10;;;1.80;99.90;;;;;;5113253;28;20408;-68
2022/01/08 00:41:33;;;;;;;10.75;6.70;;;1.80;99.90;;;;;;5112636;28;20126;-67
2022/01/08 00:43:59;;;;;;;13.20;7.32;;;1.80;99.90;;;;;;5112335;28;20125;-66
2022/01/08 00:46:24;;;;;;;13.15;7.65;;;1.70;99.90;;;;;;5114529;28;20118;-66
2022/01/08 00:48:50;;;;;;;13.48;7.78;;;1.80;99.90;;;;;;5132858;28;20057;-67
2022/01/08 00:51:16;;;;;;;14.45;7.72;;;1.70;99.90;;;;;;5134007;27;20130;-67
2022/01/08 00:53:41;;;;;;;15.35;7.40;;;1.60;99.90;;;;;;5116056;28;20047;-67
2022/01/08 00:56:07;;;;;;;13.93;7.97;;;1.60;99.90;;;;;;5133532;27;20040;-66
2022/01/08 00:58:32;;;;;;;15.43;7.90;;;1.60;99.90;;;;;;5112057;28;20554;-66
2022/01/08 01:00:58;;;;;;;14.75;7.95;;;1.50;99.90;;;;;;5112332;28;20112;-66
2022/01/08 01:03:24;;;;;;;13.82;7.53;;;1.50;99.90;;;;;;5112242;28;20436;-66
2022/01/08 01:05:49;;;;;;;13.60;8.35;;;1.50;99.90;;;;;;5112400;28;20036;-67
2022/01/08 01:08:15;;;;;;;13.77;8.10;;;1.50;99.90;;;;;;5129748;28;20126;-66
2022/01/08 01:10:41;;;;;;;10.30;7.55;;;1.50;99.90;;;;;;5133808;27;20031;-66
2022/01/08 01:13:07;;;;;;;12.55;7.55;;;1.60;99.90;;;;;;5132728;28;20126;-66
2022/01/08 01:15:32;;;;;;;14.70;7.80;;;1.60;99.90;;;;;;5132434;28;20107;-67
2022/01/08 01:17:58;;;;;;;14.73;6.50;;;1.70;99.90;;;;;;5131063;28;20135;-66
2022/01/08 01:20:24;;;;;;;13.32;7.63;;;1.70;99.90;;;;;;5133370;27;20349;-66
2022/01/08 01:23:14;;;;;;;13.00;6.80;;;1.70;99.90;;;;;;5132436;28;20047;-68
2022/01/08 01:25:47;;;;;;;11.00;6.90;;;1.80;99.90;;;;;;5132169;28;20046;-67
2022/01/08 01:28:34;;;;;;;12.45;6.32;;;1.80;99.90;;;;;;5114456;28;20206;-66
2022/01/08 01:47:03;;;;;;;8.15;4.53;;;2.20;99.90;;;;;;5119821;27;20039;-66
2022/01/08 01:49:37;;;;;;;11.65;4.97;;;2.20;99.90;;;;;;5135586;27;20046;-67
2022/01/08 01:52:05;;;;;;;10.88;5.13;;;2.30;99.90;;;;;;5119105;27;20103;-67
2022/01/08 01:54:31;;;;;;;9.52;4.20;;;2.20;99.90;;;;;;5136156;27;20043;-67
2022/01/08 01:56:58;;;;;;;9.40;4.60;;;2.20;99.90;;;;;;5134690;27;20456;-67
2022/01/08 01:59:26;;;;;;;10.00;4.50;;;2.20;99.90;;;;;;5135717;27;20039;-67
2022/01/08 02:01:52;;;;;;;11.98;4.45;;;2.20;99.90;;;;;;5135697;27;20543;-67
2022/01/08 02:04:17;;;;;;;8.57;4.18;;;2.10;99.90;;;;;;5135810;27;20031;-67
2022/01/08 02:06:45;;;;;;;8.20;3.85;;;2.10;99.90;;;;;;5132144;27;20094;-67
2022/01/08 02:09:10;;;;;;;9.93;4.10;;;2.10;99.90;;;;;;5116096;28;20103;-68
2022/01/08 02:12:00;;;;;;;9.65;4.28;;;2.00;99.90;;;;;;5098156;28;20070;-66
2022/01/08 02:14:28;;;;;;;10.35;4.30;;;2.00;99.90;;;;;;5098138;28;20119;-66
2022/01/08 02:16:54;;;;;;;9.18;4.18;;;1.90;99.90;;;;;;5103251;27;20456;-67
2022/01/08 02:19:21;;;;;;;9.50;4.10;;;2.00;99.90;;;;;;5135367;27;20099;-67
2022/01/08 02:21:55;;;;;;;10.15;4.40;;;1.90;99.90;;;;;;5101282;27;20112;-66
2022/01/08 02:24:21;;;;;;;9.52;4.22;;;1.90;99.90;;;;;;5136216;27;20087;-66
2022/01/08 02:26:48;;;;;;;12.48;4.57;;;1.90;99.90;;;;;;5113221;28;20548;-66
2022/01/08 02:29:15;;;;;;;13.25;5.30;;;1.90;99.90;;;;;;5097553;28;20056;-67
2022/01/08 02:31:51;;;;;;;10.75;4.82;;;2.00;99.90;;;;;;5097525;28;20039;-67
2022/01/08 02:34:21;;;;;;;9.43;4.90;;;2.00;99.90;;;;;;5097953;28;20058;-66
2022/01/08 02:36:47;;;;;;;13.27;5.68;;;2.00;99.90;;;;;;5085170;27;20042;-67
2022/01/08 02:39:12;;;;;;;12.48;5.20;;;2.00;99.90;;;;;;5118109;27;20035;-67
2022/01/08 02:41:39;;;;;;;11.30;5.78;;;2.00;99.90;;;;;;5118041;27;20107;-66
2022/01/08 02:44:09;;;;;;;13.02;6.43;;;2.00;99.90;;;;;;5118057;27;20337;-67
2022/01/08 02:46:34;;;;;;;14.82;6.30;;;2.30;99.90;;;;;;5117053;27;20042;-67
2022/01/08 02:49:00;;;;;;;10.30;5.97;;;2.00;99.90;;;;;;5082926;27;20035;-67
2022/01/08 02:51:26;;;;;;;11.18;5.88;;;2.00;99.90;;;;;;5117994;27;20082;-66
2022/01/08 02:53:51;;;;;;;13.15;6.43;;;2.00;99.90;;;;;;5118073;27;20100;-67
2022/01/08 02:56:17;;;;;;;12.00;5.93;;;1.90;99.90;;;;;;5117350;27;20035;-67
2022/01/08 02:58:43;;;;;;;14.27;6.47;;;1.90;99.90;;;;;;5097014;28;20372;-68
2022/01/08 03:01:09;;;;;;;12.25;6.07;;;1.80;99.90;;;;;;5097063;28;20108;-68
2022/01/08 03:03:34;;;;;;;10.20;5.97;;;1.80;99.90;;;;;;5110471;27;20122;-67
2022/01/08 03:06:00;;;;;;;11.13;6.10;;;1.70;99.90;;;;;;5101082;27;20092;-68
2022/01/08 03:08:26;;;;;;;11.20;6.15;;;1.80;99.90;;;;;;5116772;27;20118;-67
2022/01/08 03:10:53;;;;;;;13.50;6.80;;;1.70;99.90;;;;;;5100479;27;20035;-68
2022/01/08 03:13:18;;;;;;;13.25;7.07;;;1.70;99.90;;;;;;5117514;27;20039;-67
2022/01/08 03:15:44;;;;;;;11.07;6.90;;;1.70;99.90;;;;;;5116969;27;20054;-67
2022/01/08 03:18:10;;;;;;;14.80;6.40;;;1.60;99.90;;;;;;5134377;27;20043;-67
2022/01/08 03:20:45;;;;;;;11.68;6.60;;;1.60;99.90;;;;;;5117400;27;20038;-67
2022/01/08 03:23:15;;;;;;;12.75;6.90;;;1.60;99.90;;;;;;5117327;27;20046;-67
2022/01/08 03:25:40;;;;;;;11.60;7.10;;;1.60;99.90;;;;;;5117323;27;20081;-67
2022/01/08 03:28:06;;;;;;;14.63;7.38;;;1.60;99.90;;;;;;5100537;28;20151;-66
2022/01/08 03:30:34;;;;;;;14.57;7.00;;;1.60;99.90;;;;;;5096631;28;20122;-66
2022/01/08 03:32:59;;;;;;;11.85;7.32;;;1.60;99.90;;;;;;5096588;28;20047;-66
2022/01/08 03:35:25;;;;;;;15.25;7.18;;;1.60;99.90;;;;;;5096438;28;20114;-67
2022/01/08 03:37:51;;;;;;;13.05;7.78;;;1.60;99.90;;;;;;5094696;27;20046;-67
2022/01/08 03:40:17;;;;;;;14.82;7.10;;;1.60;99.90;;;;;;5137505;27;20385;-67
2022/01/08 03:42:43;;;;;;;18.77;7.95;;;1.60;99.90;;;;;;5137280;27;20046;-67
2022/01/08 03:45:09;;;;;;;12.52;6.57;;;1.70;99.90;;;;;;5137648;27;20034;-68
2022/01/08 03:50:28;;;;;;;13.20;6.93;;;1.70;99.90;;;;;;5090456;28;20368;-67
2022/01/08 03:52:53;;;;;;;12.57;6.50;;;1.70;99.90;;;;;;5115402;27;20039;-67
2022/01/08 03:55:19;;;;;;;13.68;7.57;;;1.80;99.90;;;;;;5116584;27;20047;-66
2022/01/08 03:57:45;;;;;;;14.60;7.47;;;1.80;99.90;;;;;;5113431;27;20050;-66
2022/01/08 04:00:11;;;;;;;14.88;6.90;;;1.80;99.90;;;;;;5117181;27;20363;-66
2022/01/08 04:02:37;;;;;;;14.50;6.80;;;1.70;99.90;;;;;;5099636;27;20045;-65
2022/01/08 04:05:02;;;;;;;13.15;6.80;;;1.80;99.90;;;;;;5116670;27;20035;-65
2022/01/08 04:07:28;;;;;;;11.18;6.10;;;1.80;99.90;;;;;;5115801;27;20107;-65
2022/01/08 04:09:54;;;;;;;12.05;5.72;;;1.80;99.90;;;;;;5099455;27;20046;-66
2022/01/08 04:12:30;;;;;;;10.80;5.88;;;1.80;99.90;;;;;;5116675;27;20095;-66
2022/01/08 04:15:05;;;;;;;12.63;5.28;;;1.80;99.90;;;;;;5116020;27;20070;-66
2022/01/08 04:17:31;;;;;;;11.35;4.70;;;1.80;99.90;;;;;;5115412;27;20180;-66
2022/01/08 04:19:56;;;;;;;10.20;4.80;;;1.80;99.90;;;;;;5134599;27;20117;-66
2022/01/08 04:22:24;;;;;;;11.52;4.50;;;1.80;99.90;;;;;;5116190;27;20039;-66
2022/01/08 04:24:50;;;;;;;8.40;4.70;;;1.90;99.90;;;;;;5116023;27;20097;-66
2022/01/08 04:27:18;;;;;;;9.15;4.05;;;1.90;99.90;;;;;;5115771;27;20070;-66
2022/01/08 04:29:43;;;;;;;10.95;4.13;;;2.00;99.90;;;;;;5116054;27;20042;-67
2022/01/08 04:32:09;;;;;;;13.18;4.18;;;2.00;99.90;;;;;;5115922;27;20039;-68
2022/01/08 04:34:35;;;;;;;7.15;3.60;;;2.00;99.90;;;;;;5116133;27;20054;-67
2022/01/08 04:37:00;;;;;;;10.93;3.95;;;1.90;99.90;;;;;;5133701;27;20096;-67
2022/01/08 04:39:27;;;;;;;9.43;4.07;;;1.80;99.90;;;;;;5115565;27;20047;-65
2022/01/08 04:41:53;;;;;;;8.70;3.50;;;1.80;99.90;;;;;;5115860;28;20062;-67
2022/01/08 04:44:19;;;;;;;10.45;3.40;;;1.80;99.90;;;;;;5099354;28;20067;-66
2022/01/08 04:46:45;;;;;;;9.98;3.20;;;1.70;99.90;;;;;;5133284;28;20092;-67
2022/01/08 04:49:12;;;;;;;7.88;3.50;;;1.70;99.90;;;;;;5098914;28;20035;-67
2022/01/08 04:51:37;;;;;;;14.15;3.75;;;1.60;99.90;;;;;;5115929;28;20104;-66
2022/01/08 04:54:03;;;;;;;10.30;4.22;;;1.60;99.90;;;;;;5115854;28;20047;-67
2022/01/08 04:56:29;;;;;;;11.25;3.78;;;1.60;99.90;;;;;;5115546;28;20050;-68
2022/01/08 04:58:54;;;;;;;7.50;3.75;;;1.50;99.90;;;;;;5116352;28;20039;-67
2022/01/08 05:01:20;;;;;;;10.30;3.97;;;1.50;99.90;;;;;;5134055;28;20446;-67
2022/01/08 05:03:46;;;;;;;7.53;3.97;;;1.50;99.90;;;;;;5115999;28;20039;-67
2022/01/08 05:06:12;;;;;;;10.30;4.00;;;1.50;99.90;;;;;;5115738;28;20047;-68
2022/01/08 05:08:38;;;;;;;8.52;3.53;;;1.50;99.90;;;;;;5115162;28;20217;-68
2022/01/08 05:11:03;;;;;;;11.77;3.80;;;1.40;99.90;;;;;;5115527;28;20039;-67
2022/01/08 05:13:29;;;;;;;9.32;4.07;;;1.40;99.90;;;;;;5118756;27;20047;-67
2022/01/08 05:15:55;;;;;;;9.57;3.95;;;1.40;99.90;;;;;;5119368;27;20047;-67
2022/01/08 05:18:22;;;;;;;11.98;4.50;;;1.30;99.90;;;;;;5118317;27;20035;-66
2022/01/08 05:20:56;;;;;;;8.88;4.35;;;1.30;99.90;;;;;;5119848;27;20119;-67
2022/01/08 05:23:22;;;;;;;7.43;3.93;;;1.30;99.90;;;;;;5102687;27;20337;-67
2022/01/08 05:25:47;;;;;;;9.70;4.22;;;1.30;99.90;;;;;;5119349;27;20450;-67
2022/01/08 05:28:13;;;;;;;9.35;4.55;;;1.30;99.90;;;;;;5118386;27;20046;-67
2022/01/08 05:30:38;;;;;;;9.75;4.53;;;1.30;99.90;;;;;;5138035;27;20056;-67
2022/01/08 05:33:04;;;;;;;12.00;5.05;;;1.20;99.90;;;;;;5102509;27;20467;-67
2022/01/08 05:35:30;;;;;;;7.22;4.15;;;1.20;99.90;;;;;;5102778;27;20043;-67
2022/01/08 05:37:56;;;;;;;11.05;4.50;;;1.20;99.90;;;;;;5101253;27;20090;-66
2022/01/08 05:40:22;;;;;;;10.65;4.65;;;1.10;99.90;;;;;;5102318;27;20087;-66
2022/01/08 05:42:48;;;;;;;9.15;4.35;;;1.20;99.90;;;;;;5118943;27;20070;-66
2022/01/08 05:45:14;;;;;;;9.85;4.55;;;1.10;99.90;;;;;;5119434;27;20050;-68
2022/01/08 05:47:40;;;;;;;11.30;4.65;;;1.10;99.90;;;;;;5118307;27;20465;-66
2022/01/08 05:50:07;;;;;;;12.70;4.95;;;1.10;99.90;;;;;;5119278;27;20039;-67
2022/01/08 05:52:33;;;;;;;11.82;4.45;;;1.10;99.90;;;;;;5118932;27;20226;-68
2022/01/08 05:54:58;;;;;;;10.00;4.03;;;1.10;99.90;;;;;;5119050;27;20050;-66
2022/01/08 05:57:24;;;;;;;14.23;4.50;;;1.10;99.90;;;;;;5117942;27;20104;-67
2022/01/08 05:59:50;;;;;;;11.77;5.10;;;1.00;99.90;;;;;;5118986;27;20054;-66
2022/01/08 06:02:16;;;;;;;10.65;4.70;;;1.00;99.90;;;;;;5118842;27;20035;-67
2022/01/08 06:04:42;;;;;;;11.70;4.53;;;1.10;99.90;;;;;;5118936;27;20134;-66
2022/01/08 06:07:10;;;;;;;11.45;4.45;;;1.00;99.90;;;;;;5118440;27;20482;-67
2022/01/08 06:09:36;;;;;;;8.93;5.00;;;1.00;99.90;;;;;;5101727;27;20035;-67
2022/01/08 06:12:02;;;;;;;12.13;4.32;;;1.00;99.90;;;;;;5118640;27;20585;-66
2022/01/08 06:14:28;;;;;;;10.63;4.45;;;1.00;99.90;;;;;;5118672;27;20063;-67
2022/01/08 06:16:55;;;;;;;9.57;4.40;;;1.00;99.90;;;;;;5114323;28;20103;-67
2022/01/08 06:19:20;;;;;;;9.77;4.25;;;1.00;99.90;;;;;;5097578;28;20480;-67
2022/01/08 06:21:46;;;;;;;9.18;4.20;;;1.00;99.90;;;;;;5081366;28;20048;-67
2022/01/08 06:24:12;;;;;;;9.43;4.07;;;1.00;99.90;;;;;;5080325;28;20126;-67
2022/01/08 06:26:38;;;;;;;11.05;3.90;;;0.90;99.90;;;;;;5096509;28;20046;-66
2022/01/08 06:29:03;;;;;;;10.27;3.88;;;1.00;99.90;;;;;;5118372;27;20069;-66
2022/01/08 06:31:29;;;;;;;11.48;3.90;;;0.90;99.90;;;;;;5118212;27;20031;-67
2022/01/08 06:33:55;;;;;;;7.25;3.42;;;0.90;99.90;;;;;;5101735;27;20050;-67
2022/01/08 06:36:23;;;;;;;11.25;3.05;;;1.00;99.90;;;;;;5118142;27;20495;-66
2022/01/08 06:38:50;;;;;;;7.80;3.40;;;1.00;99.90;;;;;;5117775;27;20042;-66
2022/01/08 06:41:16;;;;;;;9.13;3.05;;;1.00;99.90;;;;;;5100941;27;20126;-67
2022/01/08 06:43:42;;;;;;;13.82;3.17;;;0.90;99.90;;;;;;5118181;27;20367;-67
2022/01/08 06:46:08;;;;;;;11.07;3.28;;;1.00;99.90;;;;;;5101287;27;20403;-68
2022/01/08 06:48:34;;;;;;;11.55;3.15;;;0.90;99.90;;;;;;5117451;27;20126;-68
2022/01/08 06:51:00;;;;;;;11.80;3.50;;;0.90;99.90;;;;;;5118255;27;20138;-67
2022/01/08 06:53:25;;;;;;;10.18;2.97;;;1.00;99.90;;;;;;5117268;27;20119;-66
2022/01/08 06:55:51;;;;;;;9.63;2.85;;;1.00;99.90;;;;;;5117964;27;20144;-67
2022/01/08 06:58:20;;;;;;;9.63;3.38;;;1.00;99.90;;;;;;5100304;27;20423;-67
2022/01/08 07:00:46;;;;;;;11.43;2.92;;;1.00;99.90;;;;;;5117738;27;20095;-67
2022/01/08 07:03:11;;;;;;;12.57;3.08;;;1.00;99.90;;;;;;5100591;27;20042;-67
2022/01/08 07:05:39;;;;;;;13.75;4.18;;;1.00;99.90;;;;;;5117859;27;20197;-66
2022/01/08 07:08:06;;;;;;;14.02;3.30;;;1.00;99.90;;;;;;5116902;27;20031;-66
2022/01/08 07:10:32;;;;;;;10.60;3.58;;;1.00;99.90;;;;;;5117245;27;20073;-67
2022/01/08 07:12:58;;;;;;;10.13;4.00;;;1.00;99.90;;;;;;5117868;27;20057;-67
2022/01/08 07:15:23;;;;;;;10.48;3.85;;;1.00;99.90;;;;;;5117229;27;20463;-67
2022/01/08 07:17:50;;;;;;;11.65;3.92;;;1.00;99.90;;;;;;5099049;27;20293;-67
2022/01/08 07:20:17;;;;;;;11.60;3.92;;;1.00;99.90;;;;;;5117543;27;20134;-67
2022/01/08 07:22:42;;;;;;;13.52;3.92;;;1.00;99.90;;;;;;5099864;27;20050;-67
2022/01/08 07:25:10;;;;;;;11.18;4.40;;;1.00;99.90;;;;;;5117721;27;20043;-67
2022/01/08 07:27:36;;;;;;;14.20;4.05;;;0.90;99.90;;;;;;5099919;27;20054;-66
2022/01/08 07:30:04;;;;;;;13.50;4.20;;;1.00;99.90;;;;;;5117268;27;20035;-68
2022/01/08 07:32:30;;;;;;;13.65;4.40;;;1.00;99.90;;;;;;5117316;27;20039;-68
2022/01/08 07:34:56;;;;;;;15.40;4.18;;;0.90;99.90;;;;;;5116833;27;20039;-66
2022/01/08 07:37:22;;;;;;;10.10;3.88;;;0.90;99.90;;;;;;5116148;27;20046;-67
2022/01/08 07:39:48;;;;;;;11.27;3.72;;;0.90;99.90;;;;;;5110526;28;20031;-66
2022/01/08 07:42:13;;;;;;;12.85;4.15;;;1.00;99.90;;;;;;5108027;27;20038;-66
2022/01/08 07:44:39;;;;;;;11.77;4.15;;;1.00;99.90;;;;;;5125747;27;20353;-68
2022/01/08 07:47:06;;;;;;;8.90;4.03;;;1.00;99.90;;;;;;5101459;28;20111;-67
2022/01/08 07:49:32;;;;;;;12.68;4.20;;;1.00;99.90;;;;;;5100154;27;20027;-67
2022/01/08 07:51:58;;;;;;;13.52;5.07;;;1.00;99.90;;;;;;5123189;27;20050;-66
2022/01/08 07:54:23;;;;;;;10.23;4.93;;;0.90;99.90;;;;;;5103954;27;20035;-67
2022/01/08 07:56:49;;;;;;;13.60;4.78;;;0.90;99.90;;;;;;5102548;27;20398;-67
2022/01/08 07:59:18;;;;;;;14.95;5.45;;;0.90;99.90;;;;;;5089210;27;20410;-67
2022/01/08 08:01:43;;;;;;;15.48;4.85;;;0.90;99.90;;;;;;5086446;27;20039;-67
2022/01/08 08:04:09;;;;;;;14.18;4.93;;;0.90;99.90;;;;;;5102044;28;20032;-68
2022/01/08 08:06:43;;;;;;;13.10;4.80;;;1.00;99.90;;;;;;5115278;27;20356;-67
2022/01/08 08:09:09;;;;;;;10.13;5.30;;;0.90;99.90;;;;;;5132494;27;20099;-68
2022/01/08 08:11:37;;;;;;;9.75;5.00;;;0.90;99.90;;;;;;5134264;27;20121;-67
2022/01/08 08:14:04;;;;;;;12.20;5.18;;;1.00;99.90;;;;;;5132625;27;20042;-67
2022/01/08 08:16:30;;;;;;;10.75;4.70;;;1.00;99.90;;;;;;5133937;27;20129;-68
2022/01/08 08:18:57;;;;;;;12.27;5.13;;;1.00;99.90;;;;;;5129937;27;20176;-67
2022/01/08 08:21:22;;;;;;;14.05;5.90;;;1.00;99.90;;;;;;5136284;27;20045;-67
2022/01/08 08:23:48;;;;;;;10.98;4.90;;;1.00;99.90;;;;;;5154951;27;20039;-66
2022/01/08 08:26:13;;;;;;;15.15;6.03;;;1.00;99.90;;;;;;5154625;27;20442;-66
2022/01/08 08:28:39;;;;;;;13.20;5.78;;;1.10;99.90;;;;;;5135703;27;20110;-67
2022/01/08 08:31:05;;;;;;;14.55;5.35;;;1.10;99.90;;;;;;5136278;27;20026;-67
2022/01/08 08:33:30;;;;;;;13.02;5.70;;;1.20;99.90;;;;;;5131617;27;20150;-67
2022/01/08 08:35:56;;;;;;;11.65;6.00;;;1.20;99.90;;;;;;5135649;27;20030;-66
2022/01/08 08:38:21;;;;;;;11.25;6.43;;;1.30;99.90;;;;;;5153576;27;20274;-66
2022/01/08 08:40:47;;;;;;;13.00;5.85;;;1.30;99.90;;;;;;5136341;27;20126;-66
2022/01/08 08:43:13;;;;;;;14.93;5.95;;;1.40;99.90;;;;;;5136422;27;20061;-68
2022/01/08 08:45:41;;;;;;;14.38;6.25;;;1.40;99.90;;;;;;5154548;27;20037;-67
2022/01/08 08:48:07;;;;;;;15.38;5.95;;;1.50;99.90;;;;;;5117278;27;20034;-66
2022/01/08 08:50:33;;;;;;;12.15;5.60;;;1.50;99.90;;;;;;5119676;27;20034;-63
2022/01/08 08:52:59;;;;;;;16.13;6.22;;;1.50;99.90;;;;;;5136939;27;20122;-66
2022/01/08 08:55:25;;;;;;;13.55;5.47;;;1.50;99.90;;;;;;5136952;27;20363;-66
2022/01/08 08:57:51;;;;;;;13.73;5.60;;;1.60;99.90;;;;;;5118407;27;20094;-66
2022/01/08 09:00:17;;;;;;;12.25;5.78;;;1.60;99.90;;;;;;5101985;27;20463;-66
2022/01/08 09:02:43;;;;;;;12.32;4.88;;;1.60;99.90;;;;;;5135854;27;20057;-66
2022/01/08 09:05:09;;;;;;;12.35;5.18;;;1.70;99.90;;;;;;5136607;27;20031;-65
2022/01/08 09:07:35;;;;;;;12.00;5.15;;;1.70;99.90;;;;;;5115900;27;20350;-66
2022/01/08 09:10:04;;;;;;;13.73;5.50;;;1.70;99.90;;;;;;5136102;27;20451;-66
2022/01/08 09:12:31;;;;;;;14.38;5.50;;;1.80;99.90;;;;;;5135901;27;20039;-67
2022/01/08 09:14:57;;;;;;;11.25;5.20;;;1.80;99.90;;;;;;5154314;27;20134;-66
2022/01/08 09:17:24;;;;;;;12.88;5.03;;;1.80;99.90;;;;;;5153326;27;20164;-66
2022/01/08 09:19:51;;;;;;;10.88;5.80;;;2.00;99.90;;;;;;5136352;27;20050;-68
2022/01/08 09:22:17;;;;;;;15.48;5.85;;;2.00;99.90;;;;;;5150853;27;20045;-68
2022/01/08 09:24:45;;;;;;;10.63;5.07;;;2.00;99.90;;;;;;5134378;27;20494;-66
2022/01/08 09:27:11;;;;;;;11.73;5.10;;;2.10;99.90;;;;;;5102613;27;20288;-66
2022/01/08 09:29:37;;;;;;;11.88;4.60;;;2.10;99.90;;;;;;5136367;27;20034;-67
2022/01/08 09:32:07;;;;;;;12.43;5.05;;;2.20;99.90;;;;;;5136044;27;20501;-66
2022/01/08 09:34:34;;;;;;;12.00;5.20;;;2.10;99.90;;;;;;5136031;27;20122;-66
2022/01/08 09:37:01;;;;;;;16.45;5.40;;;2.20;99.90;;;;;;5132304;27;20081;-66
2022/01/08 09:39:27;;;;;;;11.63;5.00;;;2.20;99.90;;;;;;5115492;28;20035;-67
2022/01/08 09:41:54;;;;;;;14.68;5.82;;;2.20;99.90;;;;;;5115496;28;20297;-66
2022/01/08 09:44:19;;;;;;;14.45;5.13;;;2.20;99.90;;;;;;5115167;28;20399;-65
2022/01/08 09:46:45;;;;;;;15.68;5.78;;;2.20;99.90;;;;;;5097843;27;20054;-65
2022/01/08 09:49:11;;;;;;;13.77;5.60;;;2.20;99.90;;;;;;5098136;28;20336;-67
2022/01/08 09:51:37;;;;;;;10.30;5.63;;;2.20;99.90;;;;;;5115239;28;20091;-66
2022/01/08 09:54:03;;;;;;;13.50;5.85;;;2.20;99.90;;;;;;5133374;28;20090;-66
2022/01/08 09:56:31;;;;;;;12.30;5.38;;;2.20;99.90;;;;;;5115698;28;20080;-66
2022/01/08 09:58:56;;;;;;;13.82;6.72;;;2.30;99.90;;;;;;5154799;27;20067;-66
2022/01/08 10:01:33;;;;;;;15.25;6.47;;;2.40;99.90;;;;;;5157724;27;20122;-66
2022/01/08 10:04:00;;;;;;;12.70;6.40;;;2.50;99.90;;;;;;5122402;27;20348;-66
2022/01/08 10:06:35;;;;;;;10.88;6.13;;;2.50;99.90;;;;;;5139682;27;20039;-66
2022/01/08 10:09:01;;;;;;;12.82;6.22;;;2.50;99.90;;;;;;5121257;27;20050;-67
2022/01/08 10:11:28;;;;;;;14.10;6.57;;;2.60;99.90;;;;;;5139345;27;20080;-66
2022/01/08 10:14:02;;;;;;;15.48;6.88;;;2.60;99.90;;;;;;5139153;27;20035;-66
2022/01/08 10:19:23;;;;;;;11.73;6.75;;;2.70;99.90;;;;;;5156955;27;20042;-67
2022/01/08 10:21:49;;;;;;;17.65;6.80;;;2.80;99.90;;;;;;5154481;27;20046;-67
2022/01/08 10:24:21;;;;;;;15.52;7.13;;;2.80;99.90;;;;;;5139250;27;20066;-67
2022/01/08 10:26:49;;;;;;;12.82;6.93;;;2.80;99.90;;;;;;5137516;27;20034;-67
2022/01/08 10:29:20;;;;;;;14.48;7.47;;;2.90;99.90;;;;;;5118757;27;20038;-67
2022/01/08 10:31:51;;;;;;;11.57;7.22;;;2.90;99.90;;;;;;5130111;27;20459;-66
2022/01/08 10:34:21;;;;;;;14.90;7.03;;;2.90;99.90;;;;;;5133169;27;20035;-66
2022/01/08 10:36:56;;;;;;;13.30;7.35;;;3.00;99.90;;;;;;5138950;27;20031;-65
2022/01/08 10:39:33;;;;;;;16.42;7.50;;;3.00;99.90;;;;;;5140032;27;20121;-66
2022/01/08 10:42:12;;;;;;;13.57;7.35;;;3.00;99.90;;;;;;5123352;27;20039;-65
2022/01/08 10:44:38;;;;;;;14.50;6.82;;;3.10;99.90;;;;;;5118302;27;20043;-68
2022/01/08 10:47:13;;;;;;;17.05;7.43;;;3.10;99.90;;;;;;5152777;27;20065;-68
2022/01/08 10:49:41;;;;;;;18.40;7.00;;;3.20;99.90;;;;;;5122090;27;20026;-67
2022/01/08 10:52:11;;;;;;;14.65;6.82;;;3.20;99.90;;;;;;5135385;27;20034;-68
2022/01/08 10:54:38;;;;;;;19.55;7.88;;;3.30;99.90;;;;;;5138724;27;20444;-67
2022/01/08 10:57:09;;;;;;;17.02;7.30;;;3.30;99.90;;;;;;5132154;27;20035;-67
2022/01/08 10:59:36;;;;;;;14.60;7.18;;;3.40;99.90;;;;;;5139005;27;20287;-67
2022/01/08 11:02:09;;;;;;;15.50;8.25;;;3.60;99.90;;;;;;5135246;27;20054;-68
2022/01/08 11:04:50;;;;;;;17.02;8.48;;;3.60;99.90;;;;;;5138921;27;20043;-67
2022/01/08 11:07:29;;;;;;;13.40;7.47;;;3.60;99.90;;;;;;5115947;27;20035;-66
2022/01/08 11:10:05;;;;;;;17.27;8.48;;;3.60;99.90;;;;;;5117594;27;20033;-67
2022/01/08 11:12:40;;;;;;;18.50;9.35;;;3.70;99.90;;;;;;5136096;27;20126;-68
2022/01/08 11:17:47;;;;;;;16.23;8.85;;;3.70;99.90;;;;;;5144725;27;20073;-67
2022/01/08 11:20:15;;;;;;;14.88;8.48;;;3.70;99.90;;;;;;5119654;27;20079;-68
2022/01/08 11:22:46;;;;;;;14.50;8.98;;;3.70;99.90;;;;;;5153670;27;20328;-69
2022/01/08 11:25:18;;;;;;;19.27;8.52;;;3.70;99.90;;;;;;5138051;27;20039;-68
2022/01/08 11:28:05;;;;;;;18.23;9.30;;;3.70;99.90;;;;;;5136682;27;20447;-68
2022/01/08 11:30:43;;;;;;;17.63;10.15;;;3.70;99.90;;;;;;5156512;27;20160;-68
2022/01/08 11:33:16;;;;;;;17.83;10.10;;;3.80;99.90;;;;;;5120555;27;20035;-68
2022/01/08 11:35:43;;;;;;;18.60;10.32;;;3.80;99.90;;;;;;5137791;27;20084;-67
2022/01/08 11:38:11;;;;;;;17.10;10.95;;;3.80;99.90;;;;;;5123077;27;20054;-68
2022/01/08 11:40:41;;;;;;;17.02;11.30;;;3.80;99.90;;;;;;5121922;27;20042;-68
2022/01/08 11:43:09;;;;;;;18.88;11.75;;;3.90;99.90;;;;;;5137567;27;20118;-69
2022/01/08 11:45:52;;;;;;;19.85;12.45;;;3.90;99.90;;;;;;5137070;27;20455;-69
2022/01/08 11:48:21;;;;;;;15.65;11.60;;;3.90;99.90;;;;;;5137080;27;20073;-67
2022/01/08 11:50:58;;;;;;;19.73;12.80;;;3.90;99.90;;;;;;5136779;27;20022;-68
2022/01/08 11:53:32;;;;;;;21.85;14.15;;;3.90;99.90;;;;;;5134261;27;20039;-68
2022/01/08 11:56:00;;;;;;;23.63;13.55;;;4.00;99.90;;;;;;5133311;27;20053;-67
2022/01/08 11:58:35;;;;;;;19.77;13.13;;;4.00;99.90;;;;;;5104891;27;20054;-69
2022/01/08 12:01:04;;;;;;;22.20;14.05;;;4.00;99.90;;;;;;5124338;27;20124;-68
2022/01/08 12:03:37;;;;;;;20.17;14.57;;;4.00;99.90;;;;;;5116207;27;20043;-68
2022/01/08 12:06:32;;;;;;;20.13;14.88;;;4.00;99.90;;;;;;5124631;27;20579;-69
2022/01/08 12:11:44;;;;;;;22.63;14.18;;;4.00;99.90;;;;;;5131049;27;20439;-67
2022/01/08 12:14:15;;;;;;;22.02;14.82;;;4.00;99.90;;;;;;5119961;27;20055;-68
2022/01/08 12:16:43;;;;;;;21.90;14.35;;;4.00;99.90;;;;;;5154601;27;20371;-67
2022/01/08 12:19:26;;;;;;;19.90;14.90;;;4.00;99.90;;;;;;5139934;27;20066;-69
2022/01/08 12:21:52;;;;;;;24.73;14.60;;;4.00;99.90;;;;;;5136247;27;20125;-68
2022/01/08 12:24:27;;;;;;;21.80;13.90;;;4.00;99.90;;;;;;5136952;27;20035;-68
2022/01/08 12:26:58;;;;;;;23.80;14.07;;;4.00;99.90;;;;;;5135622;27;20078;-70
2022/01/08 12:29:43;;;;;;;17.88;12.60;;;4.10;99.90;;;;;;5116150;27;20035;-70
2022/01/08 12:32:35;;;;;;;20.13;13.35;;;4.00;99.90;;;;;;5116486;27;20054;-69
2022/01/08 12:35:18;;;;;;;19.85;12.80;;;4.10;99.90;;;;;;5116212;27;20035;-68
2022/01/08 12:38:06;;;;;;;19.80;12.90;;;4.10;99.90;;;;;;5123860;27;20034;-69
2022/01/08 12:40:47;;;;;;;18.05;12.65;;;4.20;99.90;;;;;;5136479;27;20133;-69
2022/01/08 12:43:31;;;;;;;18.92;11.77;;;4.20;99.90;;;;;;5123467;27;20092;-69
2022/01/08 12:46:21;;;;;;;17.25;11.88;;;4.20;99.90;;;;;;5154879;27;20077;-68
2022/01/08 12:49:11;;;;;;;17.90;10.80;;;4.20;99.90;;;;;;5118749;27;20068;-68
2022/01/08 12:52:05;;;;;;;15.55;9.80;;;4.20;99.90;;;;;;5119826;27;20451;-68
2022/01/08 12:54:31;;;;;;;20.35;10.40;;;4.30;99.90;;;;;;5132562;27;20102;-69
2022/01/08 12:57:04;;;;;;;15.25;9.65;;;4.20;99.90;;;;;;5153597;27;20035;-68
2022/01/08 12:59:33;;;;;;;13.40;9.73;;;4.30;99.90;;;;;;5101378;28;20039;-69
2022/01/08 13:01:59;;;;;;;14.40;9.25;;;4.20;99.90;;;;;;5116004;28;20050;-68
2022/01/08 13:04:26;;;;;;;15.35;9.30;;;4.20;99.90;;;;;;5115975;28;20035;-68
2022/01/08 13:06:56;;;;;;;18.10;9.57;;;4.20;99.90;;;;;;5099271;27;20035;-68
2022/01/08 13:09:22;;;;;;;15.38;8.73;;;4.20;99.90;;;;;;5146247;27;20511;-68
2022/01/08 13:11:48;;;;;;;16.10;9.05;;;4.10;99.90;;;;;;5141075;27;20027;-71
2022/01/08 13:14:19;;;;;;;18.20;9.57;;;4.20;99.90;;;;;;5100441;28;20119;-69
2022/01/08 13:16:51;;;;;;;14.48;8.82;;;4.20;99.90;;;;;;5147085;27;20051;-69
2022/01/08 13:19:20;;;;;;;15.27;9.48;;;4.20;99.90;;;;;;5135854;27;20039;-68